createdAt,value
2018-08-07T00:02:12.861Z,149569.81
2018-08-07T00:04:44.696Z,149568.56
2018-08-07T00:07:18.453Z,149584.84
2018-08-07T00:09:51.225Z,149582.34
2018-08-07T00:12:22.505Z,149579.84
2018-08-07T00:14:53.836Z,149569.81
2018-08-07T00:17:26.181Z,149571.06
2018-08-07T00:19:57.896Z,149556.09
2018-08-07T00:22:29.230Z,149564.81
2018-08-07T00:25:00.419Z,149563.58
2018-08-07T00:27:33.851Z,149601.06
2018-08-07T00:30:05.900Z,149613.55
2018-08-07T00:32:37.396Z,149621.03
2018-08-07T00:35:13.822Z,149601.06
2018-08-07T00:37:45.124Z,149553.59
2018-08-07T00:40:19.215Z,149549.84
2018-08-07T00:42:50.279Z,149516.11
2018-08-07T00:45:26.616Z,149503.64
2018-08-07T00:47:57.930Z,149489.86
2018-08-07T00:50:29.494Z,149461.13
2018-08-07T00:53:00.844Z,149437.42
2018-08-07T00:55:39.928Z,149467.36
2018-08-07T00:58:11.780Z,149488.61
2018-08-07T01:00:42.809Z,149496.16
2018-08-07T01:03:14.488Z,149508.63
2018-08-07T01:05:45.868Z,149497.39
2018-08-07T01:08:18.143Z,149503.64
2018-08-07T01:10:49.883Z,149497.39
2018-08-07T01:13:22.397Z,149501.14
2018-08-07T01:15:53.633Z,149513.62
2018-08-07T01:18:25.126Z,149524.84
2018-08-07T01:20:56.324Z,149543.61
2018-08-07T01:23:29.752Z,149557.34
2018-08-07T01:26:02.483Z,149563.58
2018-08-07T01:28:33.633Z,149557.34
2018-08-07T01:31:08.736Z,149573.56
2018-08-07T01:33:39.797Z,149566.06
2018-08-07T01:36:10.889Z,149557.34
2018-08-07T01:38:43.169Z,149552.34
2018-08-07T01:41:14.236Z,149564.81
2018-08-07T01:43:45.456Z,149546.11
2018-08-07T01:46:27.401Z,149529.88
2018-08-07T01:48:58.755Z,149488.61
2018-08-07T01:51:30.592Z,149481.08
2018-08-07T01:54:02.851Z,149484.87
2018-08-07T01:56:34.645Z,149484.87
2018-08-07T01:59:06.850Z,149468.59
2018-08-07T02:01:38.765Z,149479.83
2018-08-07T02:04:09.811Z,149471.09
2018-08-07T02:06:41.115Z,149473.59
2018-08-07T02:09:12.614Z,149458.63
2018-08-07T02:11:44.646Z,149443.66
2018-08-07T02:14:17.584Z,149448.64
2018-08-07T02:16:50.685Z,149442.41
2018-08-07T02:19:21.824Z,149406.19
2018-08-07T02:21:53.841Z,149369.97
2018-08-07T02:24:30.806Z,149346.27
2018-08-07T02:27:01.990Z,149335.00
2018-08-07T02:29:33.019Z,149331.25
2018-08-07T02:32:04.756Z,149311.30
2018-08-07T02:34:39.775Z,149300.03
2018-08-07T02:37:11.505Z,149305.02
2018-08-07T02:39:42.814Z,149288.75
2018-08-07T02:42:13.876Z,149270.05
2018-08-07T02:44:46.094Z,149270.05
2018-08-07T02:47:17.596Z,149261.33
2018-08-07T02:49:48.804Z,149258.83
2018-08-07T02:52:26.160Z,149240.08
2018-08-07T02:54:57.107Z,149217.63
2018-08-07T02:57:28.267Z,149240.08
2018-08-07T02:59:59.963Z,149258.83
2018-08-07T03:02:32.093Z,149258.83
2018-08-07T03:05:03.803Z,149248.84
2018-08-07T03:07:36.305Z,149231.34
2018-08-07T03:10:08.579Z,149205.17
2018-08-07T03:12:41.096Z,149175.20
2018-08-07T03:15:15.129Z,149191.41
2018-08-07T03:17:48.064Z,149201.44
2018-08-07T03:20:19.588Z,149243.81
2018-08-07T03:22:51.743Z,149258.83
2018-08-07T03:25:23.131Z,149280.03
2018-08-07T03:27:55.752Z,149322.53
2018-08-07T03:30:26.957Z,149439.91
2018-08-07T03:32:58.132Z,149572.31
2018-08-07T03:35:29.535Z,149752.30
2018-08-07T03:38:00.700Z,149933.62
2018-08-07T03:40:31.715Z,150091.23
2018-08-07T03:43:03.174Z,150238.91
2018-08-07T03:45:34.462Z,150380.39
2018-08-07T03:48:11.496Z,150563.27
2018-08-07T03:50:43.091Z,150686.09
2018-08-07T03:53:14.580Z,150842.75
2018-08-07T03:55:45.850Z,150980.70
2018-08-07T03:58:19.616Z,151161.33
2018-08-07T04:00:51.091Z,151331.97
2018-08-07T04:03:22.255Z,151372.19
2018-08-07T04:05:53.874Z,151496.45
2018-08-07T04:08:25.271Z,151603.20
2018-08-07T04:10:57.413Z,151810.50
2018-08-07T04:13:28.759Z,152050.64
2018-08-07T04:15:59.909Z,152290.87
2018-08-07T04:18:31.930Z,152436.81
2018-08-07T04:21:03.285Z,152610.47
2018-08-07T04:23:35.260Z,152682.27
2018-08-07T04:26:08.272Z,152789.30
2018-08-07T04:28:43.783Z,152796.84
2018-08-07T04:31:15.214Z,153081.53
2018-08-07T04:33:47.559Z,152954.27
2018-08-07T04:36:18.733Z,153261.81
2018-08-07T04:38:51.907Z,153508.94
2018-08-07T04:41:23.139Z,153526.56
2018-08-07T04:43:55.941Z,153749.89
2018-08-07T04:46:27.742Z,153943.00
2018-08-07T04:49:02.581Z,154124.83
2018-08-07T04:51:33.738Z,154232.16
2018-08-07T04:54:06.551Z,154321.86
2018-08-07T04:56:38.403Z,154359.75
2018-08-07T04:59:13.129Z,154326.91
2018-08-07T05:01:44.573Z,154477.28
2018-08-07T05:04:16.813Z,154584.72
2018-08-07T05:06:48.406Z,154760.41
2018-08-07T05:09:21.027Z,154889.38
2018-08-07T05:11:52.661Z,154698.47
2018-08-07T05:14:23.802Z,154756.58
2018-08-07T05:16:55.146Z,154784.44
2018-08-07T05:19:26.276Z,154883.06
2018-08-07T05:21:58.610Z,154560.66
2018-08-07T05:24:30.580Z,154826.16
2018-08-07T05:27:02.675Z,154979.17
2018-08-07T05:29:34.596Z,155095.52
2018-08-07T05:32:05.899Z,155254.97
2018-08-07T05:34:36.845Z,155377.67
2018-08-07T05:37:09.721Z,155485.23
2018-08-07T05:39:43.101Z,155386.52
2018-08-07T05:42:16.172Z,155391.58
2018-08-07T05:44:47.547Z,155534.63
2018-08-07T05:47:18.586Z,155330.88
2018-08-07T05:49:50.671Z,155301.72
2018-08-07T05:52:22.148Z,155289.08
2018-08-07T05:54:53.596Z,155224.55
2018-08-07T05:57:25.266Z,155310.61
2018-08-07T05:59:57.371Z,155533.36
2018-08-07T06:02:28.593Z,155630.84
2018-08-07T06:05:04.235Z,155583.97
2018-08-07T06:07:37.678Z,155470.08
2018-08-07T06:10:10.620Z,155553.64
2018-08-07T06:12:41.989Z,155108.14
2018-08-07T06:15:15.382Z,155173.97
2018-08-07T06:17:47.775Z,155305.56
2018-08-07T06:20:20.124Z,155576.39
2018-08-07T06:22:51.988Z,155732.13
2018-08-07T06:25:25.840Z,155880.36
2018-08-07T06:27:57.767Z,155852.44
2018-08-07T06:30:29.329Z,155953.81
2018-08-07T06:33:00.647Z,156055.14
2018-08-07T06:35:36.029Z,156047.55
2018-08-07T06:38:09.909Z,156126.12
2018-08-07T06:40:41.965Z,156036.17
2018-08-07T06:43:13.963Z,156095.66
2018-08-07T06:45:49.148Z,156001.92
2018-08-07T06:48:20.378Z,155501.72
2018-08-07T06:50:52.664Z,155594.19
2018-08-07T06:53:24.364Z,155708.09
2018-08-07T06:55:56.637Z,155989.27
2018-08-07T06:58:28.011Z,156046.28
2018-08-07T07:01:02.002Z,155999.39
2018-08-07T07:03:35.232Z,156004.45
2018-08-07T07:06:07.495Z,155918.30
2018-08-07T07:08:38.775Z,155927.20
2018-08-07T07:11:10.328Z,155953.81
2018-08-07T07:13:41.640Z,156070.31
2018-08-07T07:16:13.022Z,155697.98
2018-08-07T07:18:44.354Z,156026.00
2018-08-07T07:21:15.565Z,156095.66
2018-08-07T07:23:46.715Z,156014.56
2018-08-07T07:26:19.529Z,155738.50
2018-08-07T07:28:52.021Z,155114.50
2018-08-07T07:31:23.214Z,155014.53
2018-08-07T07:34:00.768Z,154788.23
2018-08-07T07:36:32.370Z,154416.63
2018-08-07T07:39:04.706Z,154530.31
2018-08-07T07:41:44.265Z,154325.64
2018-08-07T07:44:15.518Z,153948.05
2018-08-07T07:46:46.932Z,153694.41
2018-08-07T07:49:19.549Z,153481.19
2018-08-07T07:51:52.680Z,153445.92
2018-08-07T07:54:23.909Z,153144.56
2018-08-07T07:56:57.208Z,153203.81
2018-08-07T07:59:28.448Z,152916.53
2018-08-07T08:02:00.125Z,152505.98
2018-08-07T08:04:31.358Z,152333.59
2018-08-07T08:07:03.029Z,152227.91
2018-08-07T08:09:34.184Z,152183.91
2018-08-07T08:12:06.173Z,152131.06
2018-08-07T08:14:37.311Z,152144.92
2018-08-07T08:17:08.582Z,152060.69
2018-08-07T08:19:40.070Z,152108.45
2018-08-07T08:22:13.122Z,152155.02
2018-08-07T08:24:44.251Z,152049.39
2018-08-07T08:27:15.724Z,152153.77
2018-08-07T08:29:48.290Z,152124.78
2018-08-07T08:32:20.733Z,152039.30
2018-08-07T08:34:52.202Z,152022.92
2018-08-07T08:37:23.937Z,151994.00
2018-08-07T08:40:01.066Z,151826.87
2018-08-07T08:42:33.662Z,151927.42
2018-08-07T08:45:05.125Z,151819.34
2018-08-07T08:47:37.185Z,151902.27
2018-08-07T08:50:15.833Z,151834.41
2018-08-07T08:52:49.255Z,151879.62
2018-08-07T08:55:21.118Z,152075.75
2018-08-07T08:57:53.076Z,151992.75
2018-08-07T09:00:26.628Z,151945.00
2018-08-07T09:02:59.254Z,151890.92
2018-08-07T09:05:31.467Z,151990.23
2018-08-07T09:08:03.182Z,151942.48
2018-08-07T09:10:34.683Z,151865.81
2018-08-07T09:13:05.654Z,151785.41
2018-08-07T09:15:41.485Z,151769.09
2018-08-07T09:18:16.986Z,151730.09
2018-08-07T09:20:48.177Z,151747.67
2018-08-07T09:23:21.276Z,151732.61
2018-08-07T09:25:52.763Z,151689.91
2018-08-07T09:28:24.789Z,151753.94
2018-08-07T09:30:56.300Z,151781.64
2018-08-07T09:33:28.058Z,151836.91
2018-08-07T09:35:59.589Z,151658.50
2018-08-07T09:38:32.505Z,151678.63
2018-08-07T09:41:04.877Z,151753.94
2018-08-07T09:43:36.288Z,151804.23
2018-08-07T09:46:11.622Z,151790.44
2018-08-07T09:48:43.495Z,151757.70
2018-08-07T09:51:14.936Z,151726.34
2018-08-07T09:53:46.122Z,151774.12
2018-08-07T09:56:17.537Z,151829.38
2018-08-07T09:58:48.817Z,151819.34
2018-08-07T10:01:25.459Z,151829.38
2018-08-07T10:03:58.166Z,151782.91
2018-08-07T10:06:30.743Z,151624.58
2018-08-07T10:09:02.510Z,151643.44
2018-08-07T10:11:33.662Z,151452.52
2018-08-07T10:14:06.894Z,151412.34
2018-08-07T10:16:38.463Z,151495.20
2018-08-07T10:19:10.047Z,151467.56
2018-08-07T10:21:41.520Z,151625.83
2018-08-07T10:24:12.893Z,151637.17
2018-08-07T10:26:44.112Z,151613.23
2018-08-07T10:29:15.815Z,151515.31
2018-08-07T10:31:47.942Z,151575.61
2018-08-07T10:34:19.133Z,151658.50
2018-08-07T10:36:50.735Z,151701.20
2018-08-07T10:39:23.045Z,151726.34
2018-08-07T10:41:54.775Z,151677.36
2018-08-07T10:44:26.731Z,151576.86
2018-08-07T10:46:58.271Z,151619.52
2018-08-07T10:49:29.534Z,151517.83
2018-08-07T10:52:01.095Z,151591.91
2018-08-07T10:54:32.662Z,151578.12
2018-08-07T10:57:04.716Z,151568.03
2018-08-07T10:59:36.960Z,151532.92
2018-08-07T11:02:09.465Z,151555.50
2018-08-07T11:04:40.861Z,151574.36
2018-08-07T11:07:12.850Z,151525.39
2018-08-07T11:09:44.777Z,151510.30
2018-08-07T11:12:16.200Z,151471.33
2018-08-07T11:14:48.777Z,151501.52
2018-08-07T11:17:20.809Z,151462.55
2018-08-07T11:19:52.395Z,151465.06
2018-08-07T11:22:23.803Z,151465.06
2018-08-07T11:24:57.047Z,151437.47
2018-08-07T11:27:29.908Z,151470.08
2018-08-07T11:30:03.409Z,151491.44
2018-08-07T11:32:37.161Z,151505.28
2018-08-07T11:35:11.583Z,151531.66
2018-08-07T11:37:44.106Z,151517.83
2018-08-07T11:40:18.014Z,151509.05
2018-08-07T11:42:52.882Z,151532.92
2018-08-07T11:45:26.990Z,151558.00
2018-08-07T11:47:59.128Z,151534.17
2018-08-07T11:50:32.343Z,151485.17
2018-08-07T11:53:03.921Z,151515.31
2018-08-07T11:55:35.094Z,151501.52
2018-08-07T11:58:07.127Z,151555.50
2018-08-07T12:00:39.322Z,151608.22
2018-08-07T12:03:11.720Z,151590.66
2018-08-07T12:05:43.571Z,151638.42
2018-08-07T12:08:15.523Z,151698.69
2018-08-07T12:10:46.945Z,151732.61
2018-08-07T12:13:18.317Z,151676.11
2018-08-07T12:15:49.422Z,151750.17
2018-08-07T12:18:20.581Z,151845.69
2018-08-07T12:20:54.108Z,151939.97
2018-08-07T12:23:28.930Z,152026.75
2018-08-07T12:26:00.226Z,152035.53
2018-08-07T12:28:32.009Z,152007.86
2018-08-07T12:31:03.817Z,151849.45
2018-08-07T12:33:35.247Z,151558.00
2018-08-07T12:36:07.023Z,151096.09
2018-08-07T12:38:39.818Z,150805.16
2018-08-07T12:41:13.702Z,150686.09
2018-08-07T12:43:45.047Z,150696.11
2018-08-07T12:46:17.051Z,150625.94
2018-08-07T12:48:48.156Z,150523.19
2018-08-07T12:51:20.214Z,150567.02
2018-08-07T12:53:52.504Z,150559.52
2018-08-07T12:56:23.799Z,150545.75
2018-08-07T12:58:55.004Z,150565.77
2018-08-07T13:01:26.478Z,150513.17
2018-08-07T13:03:58.285Z,150501.92
2018-08-07T13:06:29.611Z,150475.55
2018-08-07T13:09:01.037Z,150479.34
2018-08-07T13:11:32.565Z,150445.53
2018-08-07T13:14:03.703Z,150438.03
2018-08-07T13:16:36.828Z,150433.03
2018-08-07T13:19:08.045Z,150431.78
2018-08-07T13:21:39.476Z,150404.20
2018-08-07T13:24:11.042Z,150361.64
2018-08-07T13:26:42.508Z,150357.89
2018-08-07T13:29:14.339Z,150362.89
2018-08-07T13:31:45.512Z,150320.28
2018-08-07T13:34:16.639Z,150336.63
2018-08-07T13:36:47.979Z,150300.27
2018-08-07T13:39:19.900Z,150278.97
2018-08-07T13:41:51.607Z,150283.97
2018-08-07T13:44:22.751Z,150290.27
2018-08-07T13:46:55.056Z,150302.78
2018-08-07T13:49:27.032Z,150311.53
2018-08-07T13:51:59.515Z,150304.03
2018-08-07T13:54:30.926Z,150294.02
2018-08-07T13:57:02.293Z,150324.03
2018-08-07T13:59:34.154Z,150294.02
2018-08-07T14:02:06.616Z,150272.72
2018-08-07T14:04:38.055Z,150312.78
2018-08-07T14:07:09.636Z,150300.27
2018-08-07T14:09:41.490Z,150317.78
2018-08-07T14:12:12.881Z,150325.28
2018-08-07T14:14:44.400Z,150339.13
2018-08-07T14:17:15.700Z,150359.14
2018-08-07T14:19:46.992Z,150356.64
2018-08-07T14:22:18.352Z,150364.14
2018-08-07T14:24:49.665Z,150396.70
2018-08-07T14:27:23.422Z,150391.70
2018-08-07T14:29:54.497Z,150416.72
2018-08-07T14:32:26.366Z,150454.28
2018-08-07T14:34:58.125Z,150471.80
2018-08-07T14:37:30.244Z,150459.28
2018-08-07T14:40:01.405Z,150504.42
2018-08-07T14:42:32.491Z,150592.09
2018-08-07T14:45:03.826Z,150585.83
2018-08-07T14:47:35.455Z,150577.08
2018-08-07T14:50:08.943Z,150582.08
2018-08-07T14:52:41.721Z,150593.34
2018-08-07T14:55:13.359Z,150595.84
2018-08-07T14:57:44.764Z,150600.84
2018-08-07T15:00:18.441Z,150602.09
2018-08-07T15:02:49.998Z,150658.52
2018-08-07T15:05:21.650Z,150699.86
2018-08-07T15:07:54.023Z,150693.59
2018-08-07T15:10:26.848Z,150682.34
2018-08-07T15:13:00.302Z,150712.38
2018-08-07T15:15:33.641Z,150719.94
2018-08-07T15:18:05.669Z,150697.36
2018-08-07T15:20:38.416Z,150746.22
2018-08-07T15:23:10.758Z,150744.97
2018-08-07T15:25:42.696Z,150703.63
2018-08-07T15:28:14.009Z,150723.69
2018-08-07T15:30:45.415Z,150724.94
2018-08-07T15:33:16.796Z,150752.47
2018-08-07T15:35:48.026Z,150802.66
2018-08-07T15:38:20.081Z,150821.47
2018-08-07T15:40:52.187Z,150850.28
2018-08-07T15:43:24.062Z,150812.72
2018-08-07T15:45:55.372Z,150846.52
2018-08-07T15:48:28.171Z,150867.84
2018-08-07T15:50:59.883Z,150874.11
2018-08-07T15:53:32.076Z,150790.08
2018-08-07T15:56:05.130Z,150711.13
2018-08-07T15:58:36.498Z,150574.58
2018-08-07T16:01:09.478Z,150643.44
2018-08-07T16:03:44.453Z,150534.50
2018-08-07T16:06:15.932Z,150534.50
2018-08-07T16:08:47.047Z,150545.75
2018-08-07T16:11:18.565Z,150548.25
2018-08-07T16:13:50.605Z,150529.48
2018-08-07T16:16:22.162Z,150469.30
2018-08-07T16:18:56.089Z,150464.30
2018-08-07T16:21:27.735Z,150449.28
2018-08-07T16:23:59.773Z,150446.78
2018-08-07T16:26:32.034Z,150381.66
2018-08-07T16:29:03.646Z,150370.39
2018-08-07T16:31:36.850Z,150336.63
2018-08-07T16:34:08.733Z,150309.03
2018-08-07T16:36:40.461Z,150283.97
2018-08-07T16:39:13.989Z,150282.72
2018-08-07T16:41:45.659Z,150282.72
2018-08-07T16:44:16.941Z,150278.97
2018-08-07T16:46:50.518Z,150262.72
2018-08-07T16:49:22.110Z,150273.97
2018-08-07T16:51:53.340Z,150304.03
2018-08-07T16:54:25.795Z,150290.27
2018-08-07T16:56:57.370Z,150236.41
2018-08-07T16:59:29.062Z,150221.41
2018-08-07T17:02:01.032Z,150211.41
2018-08-07T17:04:35.410Z,150212.66
2018-08-07T17:07:06.474Z,150170.06
2018-08-07T17:09:37.844Z,150118.78
2018-08-07T17:12:09.328Z,150108.78
2018-08-07T17:14:42.313Z,150096.23
2018-08-07T17:17:13.778Z,150121.28
2018-08-07T17:19:45.152Z,150120.03
2018-08-07T17:22:17.689Z,150097.48
2018-08-07T17:24:49.050Z,150088.73
2018-08-07T17:27:20.362Z,150083.73
2018-08-07T17:29:52.963Z,150061.25
2018-08-07T17:32:26.381Z,150103.78
2018-08-07T17:34:58.242Z,150081.25
2018-08-07T17:37:29.682Z,150066.25
2018-08-07T17:40:01.297Z,150039.95
2018-08-07T17:42:32.727Z,150027.47
2018-08-07T17:45:04.460Z,150031.20
2018-08-07T17:47:36.407Z,150009.92
2018-08-07T17:50:11.483Z,150032.45
2018-08-07T17:52:43.077Z,150017.47
2018-08-07T17:55:15.440Z,150048.70
2018-08-07T17:57:47.049Z,150016.22
2018-08-07T18:00:20.022Z,149981.14
2018-08-07T18:02:51.556Z,149917.38
2018-08-07T18:05:24.428Z,149936.13
2018-08-07T18:07:58.250Z,149926.13
2018-08-07T18:10:33.780Z,149881.11
2018-08-07T18:13:05.190Z,149839.80
2018-08-07T18:15:36.905Z,149804.78
2018-08-07T18:18:08.757Z,149861.08
2018-08-07T18:20:40.525Z,149866.13
2018-08-07T18:23:12.979Z,149871.13
2018-08-07T18:25:44.179Z,149887.36
2018-08-07T18:28:15.609Z,149848.59
2018-08-07T18:30:47.435Z,149831.06
2018-08-07T18:33:20.245Z,149796.05
2018-08-07T18:35:51.853Z,149854.84
2018-08-07T18:38:23.490Z,149809.78
2018-08-07T18:40:55.242Z,149819.81
2018-08-07T18:43:26.693Z,149788.56
2018-08-07T18:45:58.407Z,149776.06
2018-08-07T18:48:30.118Z,149776.06
2018-08-07T18:51:02.770Z,149791.06
2018-08-07T18:53:34.247Z,149793.55
2018-08-07T18:56:08.529Z,149749.80
2018-08-07T18:58:40.234Z,149771.08
2018-08-07T19:01:11.640Z,149748.56
2018-08-07T19:03:44.410Z,149701.06
2018-08-07T19:06:19.240Z,149668.50
2018-08-07T19:08:52.483Z,149711.05
2018-08-07T19:11:24.281Z,149749.80
2018-08-07T19:13:58.651Z,149691.08
2018-08-07T19:16:32.507Z,149693.58
2018-08-07T19:19:14.283Z,149636.06
2018-08-07T19:21:50.351Z,149638.55
2018-08-07T19:24:23.289Z,149666.02
2018-08-07T19:26:56.020Z,149638.55
2018-08-07T19:29:28.720Z,149651.03
2018-08-07T19:32:00.616Z,149628.56
2018-08-07T19:34:32.416Z,149653.53
2018-08-07T19:37:04.179Z,149658.53
2018-08-07T19:39:35.845Z,149674.84
2018-08-07T19:42:07.617Z,149681.09
2018-08-07T19:44:38.849Z,149659.78
2018-08-07T19:47:12.950Z,149643.55
2018-08-07T19:49:45.626Z,149641.05
2018-08-07T19:52:18.090Z,149669.81
2018-08-07T19:54:49.653Z,149653.53
2018-08-07T19:57:23.390Z,149674.84
2018-08-07T19:59:55.646Z,149668.50
2018-08-07T20:02:30.167Z,149676.09
2018-08-07T20:05:02.175Z,149642.30
2018-08-07T20:07:37.066Z,149629.81
2018-08-07T20:10:11.112Z,149626.08
2018-08-07T20:12:43.644Z,149607.30
2018-08-07T20:15:19.776Z,149578.59
2018-08-07T20:17:51.523Z,149551.09
2018-08-07T20:20:23.541Z,149543.61
2018-08-07T20:22:56.655Z,149557.34
2018-08-07T20:25:28.446Z,149546.11
2018-08-07T20:28:00.831Z,149527.34
2018-08-07T20:30:33.406Z,149542.36
2018-08-07T20:33:04.876Z,149576.06
2018-08-07T20:35:37.034Z,149603.56
2018-08-07T20:38:08.960Z,149604.81
2018-08-07T20:40:41.911Z,149618.53
2018-08-07T20:43:14.105Z,149642.30
2018-08-07T20:45:48.361Z,149599.81
2018-08-07T20:48:20.497Z,149577.34
2018-08-07T20:50:52.282Z,149536.13
2018-08-07T20:53:23.692Z,149517.36
2018-08-07T20:55:55.369Z,149498.64
2018-08-07T20:58:26.691Z,149496.16
2018-08-07T21:00:59.224Z,149532.37
2018-08-07T21:03:30.633Z,149538.63
2018-08-07T21:06:02.218Z,149488.61
2018-08-07T21:08:33.598Z,149526.09
2018-08-07T21:11:04.919Z,149503.64
2018-08-07T21:13:37.005Z,149487.36
2018-08-07T21:16:08.485Z,149499.89
2018-08-07T21:18:40.759Z,149511.13
2018-08-07T21:21:11.851Z,149526.09
2018-08-07T21:23:44.682Z,149482.37
2018-08-07T21:26:16.776Z,149473.59
2018-08-07T21:28:48.481Z,149492.41
2018-08-07T21:31:19.688Z,149462.36
2018-08-07T21:33:50.974Z,149464.86
2018-08-07T21:36:22.673Z,149459.88
2018-08-07T21:38:54.178Z,149453.63
2018-08-07T21:41:26.345Z,149466.11
2018-08-07T21:43:57.797Z,149513.62
2018-08-07T21:46:29.183Z,149557.34
2018-08-07T21:49:00.337Z,149521.11
2018-08-07T21:51:31.650Z,149536.13
2018-08-07T21:54:04.676Z,149511.13
2018-08-07T21:56:36.109Z,149473.59
2018-08-07T21:59:08.545Z,149463.61
2018-08-07T22:01:40.109Z,149477.34
2018-08-07T22:04:11.475Z,149536.13
2018-08-07T22:06:43.763Z,149536.13
2018-08-07T22:09:16.233Z,149537.38
2018-08-07T22:11:47.419Z,149531.13
2018-08-07T22:14:20.085Z,149542.36
2018-08-07T22:16:56.534Z,149538.63
2018-08-07T22:19:27.880Z,149559.83
2018-08-07T22:21:59.228Z,149534.88
2018-08-07T22:24:31.100Z,149542.36
2018-08-07T22:27:03.177Z,149538.63
2018-08-07T22:29:35.435Z,149519.86
2018-08-07T22:32:06.784Z,149508.63
2018-08-07T22:34:38.086Z,149534.88
2018-08-07T22:37:09.157Z,149531.13
2018-08-07T22:39:40.336Z,149531.13
2018-08-07T22:42:12.959Z,149522.34
2018-08-07T22:44:44.181Z,149523.59
2018-08-07T22:47:16.804Z,149546.11
2018-08-07T22:49:48.963Z,149549.84
2018-08-07T22:52:20.331Z,149539.88
2018-08-07T22:54:52.918Z,149539.88
2018-08-07T22:57:24.127Z,149548.59
2018-08-07T22:59:56.490Z,149568.56
2018-08-07T23:02:28.531Z,149576.06
2018-08-07T23:04:59.880Z,149562.33
2018-08-07T23:07:31.148Z,149551.09
2018-08-07T23:10:02.958Z,149543.61
2018-08-07T23:12:34.090Z,149533.62
2018-08-07T23:15:06.759Z,149519.86
2018-08-07T23:17:38.347Z,149508.63
2018-08-07T23:20:10.436Z,149527.34
2018-08-07T23:22:41.659Z,149524.84
2018-08-07T23:25:14.540Z,149536.13
2018-08-07T23:27:45.816Z,149547.34
2018-08-07T23:30:19.059Z,149558.58
2018-08-07T23:32:50.505Z,149508.63
2018-08-07T23:35:24.548Z,149488.61
2018-08-07T23:37:55.920Z,149442.41
2018-08-07T23:40:27.491Z,149428.64
2018-08-07T23:42:59.586Z,149407.42
2018-08-07T23:45:31.069Z,149406.19
2018-08-07T23:48:02.155Z,149408.67
2018-08-07T23:50:33.343Z,149417.41
2018-08-07T23:53:04.478Z,149431.13
2018-08-07T23:55:36.480Z,149447.39
2018-08-07T23:58:07.664Z,149468.59
